createdAt,value
2022-08-05T00:06:06.450Z,100483.91
2022-08-05T00:21:14.784Z,100478.62
2022-08-05T00:37:11.307Z,100458.97
2022-08-05T00:51:51.676Z,100454.16
2022-08-05T01:06:55.404Z,100457.81
2022-08-05T01:22:18.840Z,100450.36
2022-08-05T01:37:54.635Z,100442.14
2022-08-05T01:53:01.843Z,100437.52
2022-08-05T02:08:05.961Z,100432.02
2022-08-05T02:23:12.781Z,100425.52
2022-08-05T02:38:20.258Z,100413.77
2022-08-05T02:53:39.619Z,100402.29
2022-08-05T03:08:44.120Z,100401.35
2022-08-05T03:23:48.404Z,100389.94
2022-08-05T03:38:53.251Z,100389.17
2022-08-05T03:55:52.963Z,100391.93
2022-08-05T04:09:36.540Z,100393.54
2022-08-05T04:24:44.276Z,100395.29
2022-08-05T04:39:52.985Z,100389.80
2022-08-05T04:54:58.912Z,100383.31
2022-08-05T05:10:18.582Z,100387.04
2022-08-05T05:25:21.893Z,100388.19
2022-08-05T05:40:36.330Z,100385.57
2022-08-05T05:55:51.549Z,100389.02
2022-08-05T06:11:02.855Z,100385.14
2022-08-05T06:26:20.871Z,100385.61
2022-08-05T06:41:24.950Z,100391.94
2022-08-05T06:56:28.706Z,100376.59
2022-08-05T07:11:37.215Z,100368.95
2022-08-05T07:26:44.635Z,100367.90
2022-08-05T07:42:14.650Z,100361.02
2022-08-05T07:57:22.657Z,100362.44
2022-08-05T08:12:49.639Z,100359.60
2022-08-05T08:27:53.234Z,100357.28
2022-08-05T08:42:56.585Z,100346.77
2022-08-05T08:58:03.778Z,100337.65
2022-08-05T09:13:08.015Z,100320.65
2022-08-05T09:28:15.435Z,100320.61
2022-08-05T09:43:41.597Z,100309.85
2022-08-05T09:58:57.376Z,100304.50
2022-08-05T10:14:22.028Z,100287.19
2022-08-05T10:30:06.608Z,100285.20
2022-08-05T10:44:51.754Z,100271.52
2022-08-05T11:00:19.663Z,100266.55
2022-08-05T11:16:00.380Z,100241.62
2022-08-05T11:31:07.918Z,100234.23
2022-08-05T11:46:15.099Z,100232.36
2022-08-05T12:01:21.906Z,100218.63
2022-08-05T12:16:32.362Z,100210.63
2022-08-05T12:31:42.376Z,100194.87
2022-08-05T12:46:55.298Z,100191.29
2022-08-05T13:02:09.933Z,100184.45
2022-08-05T13:17:21.640Z,100168.73
2022-08-05T13:32:33.026Z,100158.48
2022-08-05T13:48:09.924Z,100131.04
2022-08-05T14:03:03.805Z,100120.41
2022-08-05T14:18:14.754Z,100120.04
2022-08-05T14:33:23.034Z,100108.02
2022-08-05T14:48:33.194Z,100110.48
2022-08-05T15:03:39.314Z,100101.49
2022-08-05T15:18:42.992Z,100097.19
2022-08-05T15:34:05.686Z,100085.38
2022-08-05T15:49:23.114Z,100086.63
2022-08-05T16:04:30.652Z,100084.67
2022-08-05T16:20:04.801Z,100080.13
2022-08-05T16:34:58.891Z,100067.70
2022-08-05T16:50:03.112Z,100055.64
2022-08-05T17:05:08.047Z,100044.71
2022-08-05T17:20:14.764Z,100031.70
2022-08-05T17:35:20.611Z,100029.29
2022-08-05T17:50:28.459Z,100019.79
2022-08-05T18:05:36.075Z,100026.04
2022-08-05T18:20:39.728Z,100032.44
2022-08-05T18:36:00.911Z,100044.42
2022-08-05T18:52:05.981Z,100040.73
2022-08-05T19:06:48.520Z,100045.28
2022-08-05T19:21:51.853Z,100040.31
2022-08-05T19:36:55.875Z,100040.98
2022-08-05T19:52:09.436Z,100043.89
2022-08-05T20:07:46.801Z,100032.98
2022-08-05T20:22:48.489Z,100039.54
2022-08-05T20:38:07.639Z,100036.73
2022-08-05T20:53:16.275Z,100035.16
2022-08-05T21:08:42.486Z,100076.48
2022-08-05T21:23:47.168Z,100094.77
2022-08-05T21:38:50.453Z,100127.52
2022-08-05T21:53:59.413Z,100118.98
2022-08-05T22:09:13.105Z,100119.77
2022-08-05T22:24:40.807Z,100151.11
2022-08-05T22:39:55.178Z,100159.53
2022-08-05T22:55:00.094Z,100170.95
2022-08-05T23:10:03.983Z,100191.40
2022-08-05T23:25:08.255Z,100190.79
2022-08-05T23:40:14.671Z,100209.94
2022-08-05T23:55:19.327Z,100233.34
